Time;durP1;ratioP1;P1;durP2;ratioP2;P2;SDS_P1;SDS_P2;PMS_P1;PMS_P2;Temp;Humidity;BMP_temperature;BMP_pressure;BME280_temperature;BME280_humidity;BME280_pressure;Samples;Min_cycle;Max_cycle;Signal;HPM_P1;HPM_P2
2023/07/10 00:00:22;;;;;;;4.73;3.80;;;25.60;60.60;;;;;;4977997;28;20789;-80
2023/07/10 00:02:50;;;;;;;8.17;7.37;;;25.60;60.90;;;;;;4980113;28;20466;-77
2023/07/10 00:05:21;;;;;;;7.30;6.60;;;25.60;61.40;;;;;;4984987;28;20486;-78
2023/07/10 00:07:48;;;;;;;7.03;6.40;;;25.50;61.70;;;;;;4986332;28;20476;-78
2023/07/10 00:10:18;;;;;;;6.90;6.00;;;25.60;61.70;;;;;;4984844;28;20581;-76
2023/07/10 00:12:45;;;;;;;8.00;7.30;;;25.50;62.00;;;;;;4981244;28;20474;-76
2023/07/10 00:15:20;;;;;;;8.00;7.30;;;25.50;62.50;;;;;;4983107;28;20626;-76
2023/07/10 00:17:50;;;;;;;10.20;9.30;;;25.40;62.80;;;;;;4981451;28;20514;-76
2023/07/10 00:20:19;;;;;;;9.93;9.03;;;25.40;63.10;;;;;;4982375;28;20871;-80
2023/07/10 00:22:47;;;;;;;7.13;6.53;;;25.40;62.80;;;;;;4982707;28;20513;-79
2023/07/10 00:25:15;;;;;;;7.00;6.37;;;25.40;63.60;;;;;;4982570;28;20487;-77
2023/07/10 00:27:44;;;;;;;7.00;6.50;;;25.40;63.20;;;;;;4984790;28;20807;-76
2023/07/10 00:30:16;;;;;;;7.90;7.20;;;25.40;63.70;;;;;;4992769;28;20501;-76
2023/07/10 00:32:44;;;;;;;6.03;5.53;;;25.40;64.10;;;;;;4991390;28;20473;-77
2023/07/10 00:35:17;;;;;;;5.83;5.33;;;25.40;63.80;;;;;;4993717;28;20782;-80
2023/07/10 00:37:47;;;;;;;4.97;4.67;;;25.40;63.40;;;;;;4996705;28;20463;-80
2023/07/10 00:40:23;;;;;;;6.17;5.57;;;25.40;63.80;;;;;;4996551;28;20541;-77
2023/07/10 00:42:56;;;;;;;5.90;5.40;;;25.40;64.50;;;;;;4996945;28;20453;-79
2023/07/10 00:45:23;;;;;;;4.93;4.53;;;25.40;64.60;;;;;;4997134;28;20478;-79
2023/07/10 00:48:01;;;;;;;4.37;4.07;;;25.40;64.80;;;;;;4996148;28;20529;-80
2023/07/10 00:50:34;;;;;;;5.10;4.53;;;25.30;64.90;;;;;;4994901;28;20458;-78
2023/07/10 00:53:05;;;;;;;5.00;4.60;;;25.30;65.00;;;;;;4998232;28;20459;-79
2023/07/10 00:55:36;;;;;;;4.30;4.00;;;25.30;65.20;;;;;;4988068;28;20555;-76
2023/07/10 00:58:16;;;;;;;3.80;3.50;;;25.30;65.40;;;;;;4995316;28;20466;-79
2023/07/10 01:00:59;;;;;;;4.30;3.90;;;25.30;65.40;;;;;;4999033;28;20493;-80
2023/07/10 01:03:26;;;;;;;5.10;4.70;;;25.30;65.30;;;;;;4996655;28;20478;-75
2023/07/10 01:05:55;;;;;;;5.20;4.80;;;25.20;65.10;;;;;;4986869;28;20474;-74
2023/07/10 01:08:23;;;;;;;5.50;5.00;;;25.30;65.20;;;;;;4988582;28;20467;-80
2023/07/10 01:10:51;;;;;;;5.17;4.67;;;25.30;64.70;;;;;;4984158;28;20518;-79
2023/07/10 01:13:18;;;;;;;6.03;5.53;;;25.30;64.80;;;;;;4985147;28;20485;-81
2023/07/10 01:15:45;;;;;;;5.17;4.67;;;25.30;64.40;;;;;;4983013;28;20479;-79
2023/07/10 01:18:14;;;;;;;5.40;4.33;;;25.20;64.50;;;;;;4981937;28;20878;-79
2023/07/10 01:20:45;;;;;;;4.90;4.53;;;25.20;64.60;;;;;;4979596;28;20529;-76
2023/07/10 01:23:14;;;;;;;5.70;5.30;;;25.20;64.70;;;;;;4979797;28;20475;-79
2023/07/10 01:25:50;;;;;;;5.23;4.83;;;25.20;64.70;;;;;;4978601;28;20855;-76
2023/07/10 01:28:21;;;;;;;5.30;4.90;;;25.20;64.60;;;;;;4978756;28;20474;-79
2023/07/10 01:30:51;;;;;;;5.30;4.80;;;25.20;64.80;;;;;;4977472;28;20497;-76
2023/07/10 01:33:24;;;;;;;4.70;4.30;;;25.20;64.80;;;;;;4977924;28;20559;-76
2023/07/10 01:35:57;;;;;;;5.30;4.17;;;25.20;64.80;;;;;;4970152;28;20544;-79
2023/07/10 01:38:31;;;;;;;4.60;4.20;;;25.20;65.30;;;;;;4978133;28;20489;-76
2023/07/10 01:41:05;;;;;;;5.20;4.80;;;25.20;65.40;;;;;;4977320;28;20455;-77
2023/07/10 01:43:32;;;;;;;5.33;4.83;;;25.20;66.00;;;;;;4977899;28;20545;-76
2023/07/10 01:45:59;;;;;;;4.80;4.50;;;25.20;66.00;;;;;;4978095;28;20963;-76
2023/07/10 01:48:29;;;;;;;5.40;4.77;;;25.20;66.40;;;;;;4977684;28;20566;-76
2023/07/10 01:50:56;;;;;;;6.20;4.90;;;25.10;66.50;;;;;;4977792;28;20467;-80
2023/07/10 01:53:26;;;;;;;6.13;5.63;;;25.10;68.10;;;;;;4978128;28;21054;-77
2023/07/10 01:55:54;;;;;;;6.03;5.53;;;25.10;69.50;;;;;;4977314;28;20471;-79
2023/07/10 01:58:21;;;;;;;5.30;4.90;;;25.10;69.30;;;;;;4968337;28;20543;-75
2023/07/10 02:00:48;;;;;;;5.33;4.87;;;25.10;69.60;;;;;;4976462;28;20485;-75
2023/07/10 02:03:15;;;;;;;5.13;4.73;;;25.00;70.00;;;;;;4978238;28;20481;-79
2023/07/10 02:05:42;;;;;;;4.83;4.53;;;25.00;69.40;;;;;;4976970;28;20533;-79
2023/07/10 02:08:09;;;;;;;5.57;5.07;;;25.00;68.70;;;;;;4976797;28;20558;-76
2023/07/10 02:10:36;;;;;;;4.57;4.27;;;25.00;68.10;;;;;;4976498;28;20470;-79
2023/07/10 02:13:04;;;;;;;5.07;4.67;;;25.00;68.20;;;;;;4976406;28;20517;-76
2023/07/10 02:15:31;;;;;;;5.90;5.40;;;24.90;67.90;;;;;;4977099;28;20482;-75
2023/07/10 02:17:58;;;;;;;4.50;4.20;;;24.90;68.10;;;;;;4976452;28;20470;-79
2023/07/10 02:20:26;;;;;;;5.57;5.00;;;24.90;68.00;;;;;;4977058;28;20846;-76
2023/07/10 02:22:53;;;;;;;6.53;5.47;;;24.90;67.80;;;;;;4976445;28;20595;-76
2023/07/10 02:25:19;;;;;;;6.00;5.50;;;24.80;67.40;;;;;;4976355;28;20553;-75
2023/07/10 02:27:46;;;;;;;6.10;5.60;;;24.80;67.60;;;;;;4976443;28;20490;-75
2023/07/10 02:30:15;;;;;;;5.37;4.87;;;24.80;67.80;;;;;;4976497;28;20463;-75
2023/07/10 02:32:42;;;;;;;5.77;5.27;;;24.70;68.20;;;;;;4976242;28;20494;-75
2023/07/10 02:35:09;;;;;;;5.87;5.27;;;24.70;68.50;;;;;;4976696;28;21014;-76
2023/07/10 02:37:36;;;;;;;10.67;5.30;;;24.70;68.60;;;;;;4976893;28;20541;-80
2023/07/10 02:40:04;;;;;;;7.93;5.57;;;24.60;68.90;;;;;;4976536;28;20898;-76
2023/07/10 02:42:31;;;;;;;11.27;5.90;;;24.60;69.10;;;;;;4976424;28;20495;-76
2023/07/10 02:44:58;;;;;;;5.87;5.37;;;24.60;69.50;;;;;;4975682;28;20474;-76
2023/07/10 02:47:26;;;;;;;6.57;5.73;;;24.50;69.60;;;;;;4976342;28;20477;-76
2023/07/10 02:49:53;;;;;;;6.40;5.90;;;24.50;70.20;;;;;;4975961;28;20876;-79
2023/07/10 02:52:20;;;;;;;5.43;5.00;;;24.40;70.40;;;;;;4975448;28;20478;-75
2023/07/10 02:54:47;;;;;;;4.97;4.57;;;24.40;70.90;;;;;;4975190;28;21024;-76
2023/07/10 02:57:14;;;;;;;6.23;5.33;;;24.30;71.00;;;;;;4975970;28;20550;-76
2023/07/10 02:59:41;;;;;;;6.40;5.73;;;24.30;71.20;;;;;;4975811;28;21346;-79
2023/07/10 03:02:08;;;;;;;5.37;4.97;;;24.30;71.60;;;;;;4975797;28;20560;-81
2023/07/10 03:04:36;;;;;;;6.70;4.77;;;24.20;71.60;;;;;;4975604;28;20566;-77
2023/07/10 03:07:03;;;;;;;5.97;5.37;;;24.20;72.10;;;;;;4975317;28;22309;-77
2023/07/10 03:09:30;;;;;;;5.20;4.80;;;24.10;72.60;;;;;;4975642;28;20501;-77
2023/07/10 03:11:57;;;;;;;5.50;5.07;;;24.10;72.70;;;;;;4974787;28;20498;-75
2023/07/10 03:14:24;;;;;;;6.70;4.90;;;24.00;72.70;;;;;;4975717;28;20973;-76
2023/07/10 03:16:51;;;;;;;5.53;5.03;;;24.00;72.80;;;;;;4975019;28;21010;-76
2023/07/10 03:19:18;;;;;;;5.37;4.90;;;24.00;72.80;;;;;;4975344;28;20880;-76
2023/07/10 03:21:51;;;;;;;4.40;4.10;;;24.00;72.90;;;;;;4975176;28;20537;-80
2023/07/10 03:24:18;;;;;;;6.10;5.63;;;24.00;72.80;;;;;;4975149;28;20478;-76
2023/07/10 03:26:47;;;;;;;5.50;5.00;;;24.00;73.10;;;;;;4975197;28;20603;-80
2023/07/10 03:29:15;;;;;;;5.63;5.13;;;24.00;73.20;;;;;;4975267;28;20525;-80
2023/07/10 03:31:42;;;;;;;6.33;4.93;;;24.00;73.30;;;;;;4975400;28;20585;-76
2023/07/10 03:34:11;;;;;;;6.20;5.60;;;24.00;73.50;;;;;;4974803;28;20502;-76
2023/07/10 03:36:38;;;;;;;5.83;5.33;;;24.00;73.60;;;;;;4974879;28;20538;-77
2023/07/10 03:39:08;;;;;;;5.20;4.70;;;24.00;73.50;;;;;;4974970;28;20581;-76
2023/07/10 03:41:35;;;;;;;5.20;4.70;;;24.00;73.60;;;;;;4975134;28;20478;-76
2023/07/10 03:44:03;;;;;;;4.83;4.43;;;24.00;73.80;;;;;;4974649;28;20557;-75
2023/07/10 03:46:30;;;;;;;5.23;4.83;;;24.00;73.90;;;;;;4975568;28;20905;-79
2023/07/10 03:48:57;;;;;;;5.40;5.00;;;24.00;73.90;;;;;;4974496;28;20868;-78
2023/07/10 03:51:24;;;;;;;5.93;5.53;;;24.00;73.80;;;;;;4974880;28;20471;-75
2023/07/10 03:53:51;;;;;;;6.37;5.57;;;24.00;73.50;;;;;;4974658;28;20479;-76
2023/07/10 03:56:19;;;;;;;5.77;5.27;;;24.00;73.20;;;;;;4974279;28;20459;-76
2023/07/10 03:58:47;;;;;;;5.63;5.03;;;24.00;73.20;;;;;;4974721;28;20479;-76
2023/07/10 04:01:14;;;;;;;4.90;4.50;;;24.00;73.50;;;;;;4974287;28;20919;-76
2023/07/10 04:03:41;;;;;;;4.93;4.53;;;24.00;73.50;;;;;;4974299;28;20490;-76
2023/07/10 04:06:12;;;;;;;5.20;4.70;;;24.10;74.10;;;;;;4973351;28;20550;-79
2023/07/10 04:08:41;;;;;;;6.97;4.97;;;24.10;74.60;;;;;;4974604;28;20502;-75
2023/07/10 04:11:11;;;;;;;5.40;4.90;;;24.10;74.90;;;;;;4973847;28;20562;-76
2023/07/10 04:13:40;;;;;;;6.40;5.90;;;24.10;75.80;;;;;;4974418;28;20478;-76
2023/07/10 04:16:11;;;;;;;5.40;4.90;;;24.20;74.50;;;;;;4973734;28;20475;-79
2023/07/10 04:18:40;;;;;;;7.10;5.77;;;24.20;74.20;;;;;;4974544;28;20538;-80
2023/07/10 04:21:10;;;;;;;4.83;4.43;;;24.20;74.60;;;;;;4974182;28;20485;-77
2023/07/10 04:23:37;;;;;;;5.07;4.73;;;24.20;74.60;;;;;;4974611;28;20974;-77
2023/07/10 04:26:04;;;;;;;6.37;5.80;;;24.30;74.70;;;;;;4974156;28;20489;-77
2023/07/10 04:28:30;;;;;;;5.90;5.50;;;24.30;74.50;;;;;;4974775;28;20458;-76
2023/07/10 04:30:59;;;;;;;4.57;4.27;;;24.30;74.10;;;;;;4973912;28;20470;-77
2023/07/10 04:33:26;;;;;;;5.80;5.20;;;24.30;74.10;;;;;;4974354;28;20529;-80
2023/07/10 04:35:58;;;;;;;7.90;5.47;;;24.30;73.70;;;;;;4974337;28;20481;-75
2023/07/10 04:38:27;;;;;;;5.23;4.83;;;24.30;73.10;;;;;;4974062;28;20482;-80
2023/07/10 04:40:55;;;;;;;8.00;5.43;;;24.30;73.00;;;;;;4974438;28;20550;-76
2023/07/10 04:43:23;;;;;;;5.90;5.40;;;24.30;72.60;;;;;;4973901;28;21166;-75
2023/07/10 04:45:51;;;;;;;6.10;5.43;;;24.30;72.40;;;;;;4974053;28;20561;-75
2023/07/10 04:48:19;;;;;;;6.00;5.53;;;24.30;72.00;;;;;;4973858;28;20473;-75
2023/07/10 04:50:47;;;;;;;5.20;4.80;;;24.40;72.00;;;;;;4973895;28;20529;-75
2023/07/10 04:53:14;;;;;;;6.57;5.13;;;24.50;72.00;;;;;;4973701;28;20478;-75
2023/07/10 04:55:41;;;;;;;5.03;4.53;;;24.50;71.60;;;;;;4973925;28;20477;-75
2023/07/10 04:58:09;;;;;;;5.00;4.20;;;24.60;71.30;;;;;;4973544;28;20478;-75
2023/07/10 05:00:36;;;;;;;5.47;4.90;;;24.60;71.50;;;;;;4974105;28;20471;-77
2023/07/10 05:03:04;;;;;;;5.30;4.97;;;24.70;72.00;;;;;;4973252;28;20589;-78
2023/07/10 05:05:32;;;;;;;4.93;4.53;;;24.80;72.80;;;;;;4974000;28;20478;-79
2023/07/10 05:07:59;;;;;;;5.10;4.70;;;24.80;73.10;;;;;;4974380;28;20562;-79
2023/07/10 05:10:26;;;;;;;5.20;4.70;;;24.90;73.90;;;;;;4973045;28;20465;-78
2023/07/10 05:12:54;;;;;;;5.50;5.00;;;24.90;74.40;;;;;;4974268;28;20964;-79
2023/07/10 05:15:21;;;;;;;4.87;4.47;;;25.00;75.00;;;;;;4973557;28;20486;-79
2023/07/10 05:17:48;;;;;;;4.63;4.23;;;24.90;75.10;;;;;;4977188;28;20509;-77
2023/07/10 05:20:16;;;;;;;7.47;4.53;;;24.90;74.40;;;;;;4976989;28;20471;-76
2023/07/10 05:22:44;;;;;;;7.27;5.40;;;24.90;75.20;;;;;;4977386;28;20481;-76
2023/07/10 05:25:11;;;;;;;5.37;4.97;;;24.90;77.50;;;;;;4976872;28;20808;-79
2023/07/10 05:27:38;;;;;;;7.23;5.90;;;24.90;80.40;;;;;;4977402;28;20549;-75
2023/07/10 05:30:10;;;;;;;7.27;6.67;;;24.80;83.20;;;;;;4976587;28;20479;-77
2023/07/10 05:32:37;;;;;;;6.07;5.17;;;24.70;84.50;;;;;;4978119;28;20956;-80
2023/07/10 05:35:07;;;;;;;5.70;5.20;;;24.60;83.40;;;;;;4977528;28;20521;-80
2023/07/10 05:37:34;;;;;;;6.53;6.03;;;24.60;81.00;;;;;;4977416;28;20833;-80
2023/07/10 05:40:03;;;;;;;6.17;5.67;;;24.50;81.00;;;;;;4977893;28;20466;-78
2023/07/10 05:42:30;;;;;;;6.50;5.90;;;24.50;81.70;;;;;;4977010;28;20512;-79
2023/07/10 05:45:02;;;;;;;7.00;5.70;;;24.50;81.80;;;;;;4980694;28;20498;-77
2023/07/10 05:47:29;;;;;;;8.90;7.37;;;24.40;82.10;;;;;;4970313;28;20506;-80
2023/07/10 05:49:56;;;;;;;7.20;6.00;;;24.30;83.20;;;;;;4978888;28;20542;-80
2023/07/10 05:52:23;;;;;;;8.00;6.80;;;24.30;84.10;;;;;;4977297;28;20781;-76
2023/07/10 05:54:50;;;;;;;6.40;5.50;;;24.30;85.30;;;;;;4977255;28;20498;-80
2023/07/10 05:57:18;;;;;;;10.33;7.47;;;24.20;87.50;;;;;;4966353;28;20508;-80
2023/07/10 05:59:45;;;;;;;7.83;7.00;;;24.20;90.00;;;;;;4975967;28;20558;-76
2023/07/10 06:02:12;;;;;;;7.03;6.40;;;24.10;91.30;;;;;;4976578;28;20486;-80
2023/07/10 06:04:40;;;;;;;9.20;7.90;;;24.00;92.30;;;;;;4976446;28;20554;-79
2023/07/10 06:07:08;;;;;;;8.40;7.50;;;23.90;93.60;;;;;;4976741;28;20471;-80
2023/07/10 06:09:38;;;;;;;9.70;7.53;;;23.80;94.30;;;;;;4976196;28;20548;-80
2023/07/10 06:12:06;;;;;;;8.17;6.93;;;23.70;94.30;;;;;;4976901;28;20965;-77
2023/07/10 06:14:35;;;;;;;8.13;7.33;;;23.60;94.20;;;;;;4975560;28;20555;-76
2023/07/10 06:17:02;;;;;;;11.43;7.33;;;23.50;94.30;;;;;;4976572;28;20565;-76
2023/07/10 06:19:29;;;;;;;7.13;6.47;;;23.40;94.70;;;;;;4976081;28;20545;-76
2023/07/10 06:22:05;;;;;;;9.17;6.90;;;23.30;95.40;;;;;;4976591;28;20569;-76
2023/07/10 06:24:32;;;;;;;10.43;7.93;;;23.10;95.40;;;;;;4976120;28;20477;-79
2023/07/10 06:26:59;;;;;;;8.77;7.97;;;22.90;95.40;;;;;;4976028;28;20543;-80
2023/07/10 06:29:26;;;;;;;7.90;7.20;;;22.80;95.70;;;;;;4975599;28;20509;-80
2023/07/10 06:31:54;;;;;;;10.83;7.87;;;22.80;96.20;;;;;;4976377;28;20538;-80
2023/07/10 06:34:21;;;;;;;7.43;6.73;;;22.70;97.30;;;;;;4976146;28;20479;-80
2023/07/10 06:36:48;;;;;;;7.47;6.87;;;22.60;98.20;;;;;;4975454;28;20506;-76
2023/07/10 06:39:15;;;;;;;9.73;7.33;;;22.60;98.50;;;;;;4976100;28;20475;-79
2023/07/10 06:41:42;;;;;;;8.40;7.60;;;22.70;98.90;;;;;;4975331;28;20495;-76
2023/07/10 06:44:09;;;;;;;8.50;7.80;;;22.70;99.10;;;;;;4975940;28;20478;-77
2023/07/10 06:46:36;;;;;;;8.70;7.67;;;22.70;99.30;;;;;;4975642;28;20989;-80
2023/07/10 06:49:05;;;;;;;10.37;8.70;;;22.80;99.70;;;;;;4975970;28;20467;-80
2023/07/10 06:51:31;;;;;;;9.03;8.27;;;22.80;99.90;;;;;;4975356;28;20503;-77
2023/07/10 06:54:02;;;;;;;9.63;6.70;;;22.80;99.90;;;;;;4975662;28;20485;-80
2023/07/10 06:56:29;;;;;;;8.03;7.03;;;22.90;99.90;;;;;;4975453;28;20470;-76
2023/07/10 06:58:56;;;;;;;9.40;7.90;;;23.00;99.90;;;;;;4975775;28;20543;-76
2023/07/10 07:01:23;;;;;;;8.27;7.57;;;23.00;99.90;;;;;;4975872;28;20577;-80
2023/07/10 07:03:50;;;;;;;8.30;7.50;;;23.20;99.90;;;;;;4974621;28;20470;-79
2023/07/10 07:06:18;;;;;;;7.13;6.43;;;23.30;99.90;;;;;;4975958;28;20491;-79
2023/07/10 07:08:51;;;;;;;9.57;7.03;;;23.40;99.90;;;;;;4975102;28;20561;-79
2023/07/10 07:11:19;;;;;;;9.93;7.20;;;23.40;99.90;;;;;;4975626;28;20537;-78
2023/07/10 07:13:49;;;;;;;7.60;6.90;;;23.50;99.90;;;;;;4975370;28;20984;-79
2023/07/10 07:16:15;;;;;;;9.57;7.73;;;23.60;99.90;;;;;;4975703;28;20481;-79
2023/07/10 07:18:42;;;;;;;8.50;7.60;;;23.60;99.90;;;;;;4974758;28;20553;-76
2023/07/10 07:21:13;;;;;;;7.83;7.03;;;23.80;99.90;;;;;;4975369;28;20537;-76
2023/07/10 07:23:41;;;;;;;7.87;6.80;;;23.90;99.90;;;;;;4975176;28;20466;-76
2023/07/10 07:26:08;;;;;;;7.10;6.60;;;23.90;99.90;;;;;;4975317;28;20474;-76
2023/07/10 07:28:36;;;;;;;6.97;6.30;;;24.10;99.90;;;;;;4975241;28;20471;-79
2023/07/10 07:31:04;;;;;;;8.23;7.43;;;24.20;99.90;;;;;;4975461;28;20857;-79
2023/07/10 07:33:32;;;;;;;11.87;7.30;;;24.20;99.90;;;;;;4974768;28;20563;-79
2023/07/10 07:36:01;;;;;;;7.20;6.60;;;24.30;99.50;;;;;;4976286;28;20487;-79
2023/07/10 07:38:28;;;;;;;7.50;6.87;;;24.40;98.30;;;;;;4974217;28;20575;-76
2023/07/10 07:40:59;;;;;;;8.77;8.00;;;24.60;99.70;;;;;;4974003;28;20455;-77
2023/07/10 07:43:26;;;;;;;10.53;6.93;;;24.80;99.90;;;;;;4974686;28;20478;-80
2023/07/10 07:45:55;;;;;;;9.13;7.70;;;25.10;99.90;;;;;;4973968;28;20480;-76
2023/07/10 07:48:22;;;;;;;6.80;6.10;;;25.20;95.20;;;;;;4974543;28;20486;-76
2023/07/10 07:50:57;;;;;;;7.90;7.10;;;25.50;94.40;;;;;;4974434;28;20466;-80
2023/07/10 07:53:24;;;;;;;7.27;6.57;;;25.60;93.70;;;;;;4974940;28;21029;-80
2023/07/10 07:55:51;;;;;;;11.97;9.53;;;25.90;93.60;;;;;;4973950;28;20484;-79
2023/07/10 07:58:19;;;;;;;7.90;7.10;;;26.10;94.60;;;;;;4975086;28;20550;-76
2023/07/10 08:00:47;;;;;;;11.13;7.50;;;26.40;92.80;;;;;;4974505;28;20507;-75
2023/07/10 08:03:14;;;;;;;8.37;7.63;;;26.60;92.10;;;;;;4975113;28;20986;-77
2023/07/10 08:05:41;;;;;;;9.13;6.90;;;26.90;93.90;;;;;;4974625;28;20480;-81
2023/07/10 08:08:10;;;;;;;7.97;7.17;;;27.10;92.20;;;;;;4974754;28;21010;-80
2023/07/10 08:10:40;;;;;;;7.53;6.87;;;27.30;89.90;;;;;;4973913;28;20477;-79
2023/07/10 08:13:09;;;;;;;8.13;7.33;;;27.50;90.70;;;;;;4974786;28;20545;-76
2023/07/10 08:15:38;;;;;;;11.83;7.93;;;27.60;88.20;;;;;;4974097;28;20508;-76
2023/07/10 08:18:06;;;;;;;8.67;7.83;;;27.80;86.80;;;;;;4974406;28;20466;-80
2023/07/10 08:20:34;;;;;;;7.50;6.90;;;27.90;88.90;;;;;;4974569;28;20509;-79
2023/07/10 08:23:02;;;;;;;9.63;8.77;;;28.00;88.20;;;;;;4973263;28;20454;-80
2023/07/10 08:25:44;;;;;;;7.50;6.90;;;28.10;89.40;;;;;;4965757;28;20483;-77
2023/07/10 08:28:11;;;;;;;10.73;8.80;;;28.30;88.70;;;;;;4974319;28;20458;-77
2023/07/10 08:30:40;;;;;;;9.50;7.63;;;28.50;89.50;;;;;;4975333;28;20494;-76
2023/07/10 08:33:10;;;;;;;10.73;7.90;;;28.60;89.40;;;;;;4973609;28;20537;-79
2023/07/10 08:35:37;;;;;;;7.47;6.90;;;28.70;88.60;;;;;;4974375;28;20558;-80
2023/07/10 08:38:05;;;;;;;8.23;7.43;;;28.80;87.50;;;;;;4973811;28;20481;-80
2023/07/10 08:40:35;;;;;;;6.77;6.27;;;28.90;81.30;;;;;;4974139;28;20805;-76
2023/07/10 08:43:15;;;;;;;8.20;7.50;;;29.00;82.90;;;;;;4974110;28;20471;-76
2023/07/10 08:45:45;;;;;;;7.60;6.90;;;29.10;83.80;;;;;;4974498;28;20494;-80
2023/07/10 08:48:26;;;;;;;8.70;7.10;;;29.10;79.00;;;;;;4973716;28;20455;-80
2023/07/10 08:51:06;;;;;;;7.50;6.90;;;29.20;81.50;;;;;;4973954;28;20553;-79
2023/07/10 08:53:36;;;;;;;8.63;7.03;;;29.20;81.40;;;;;;4977933;28;20550;-80
2023/07/10 08:56:10;;;;;;;7.60;7.00;;;29.10;77.90;;;;;;4977270;28;20467;-77
2023/07/10 08:58:39;;;;;;;8.47;7.67;;;29.20;79.70;;;;;;4978403;28;20471;-80
2023/07/10 09:01:18;;;;;;;8.80;8.00;;;29.30;82.60;;;;;;4977659;28;20471;-78
2023/07/10 09:03:47;;;;;;;7.20;6.60;;;29.40;84.40;;;;;;4978369;28;20478;-77
2023/07/10 09:06:20;;;;;;;8.10;7.17;;;29.40;80.30;;;;;;4977039;28;20467;-77
2023/07/10 09:08:52;;;;;;;8.53;7.83;;;29.40;82.90;;;;;;4977938;28;20537;-78
2023/07/10 09:11:20;;;;;;;8.07;7.30;;;29.40;77.60;;;;;;4977685;28;20828;-77
2023/07/10 09:13:55;;;;;;;7.87;7.23;;;29.40;80.70;;;;;;4977651;28;20970;-77
2023/07/10 09:16:23;;;;;;;9.80;9.00;;;29.50;81.90;;;;;;4977599;28;20466;-80
2023/07/10 09:18:57;;;;;;;8.93;8.13;;;29.40;77.80;;;;;;4977915;28;20864;-80
2023/07/10 09:21:29;;;;;;;7.73;7.03;;;29.30;75.70;;;;;;4977336;28;20471;-76
2023/07/10 09:23:56;;;;;;;8.67;6.83;;;29.30;76.40;;;;;;4977779;28;20891;-80
2023/07/10 09:26:30;;;;;;;10.30;8.27;;;29.40;75.80;;;;;;4975296;28;20508;-80
2023/07/10 09:29:19;;;;;;;7.77;7.07;;;29.30;75.60;;;;;;4977524;28;20470;-77
2023/07/10 09:31:54;;;;;;;7.57;6.87;;;29.30;75.70;;;;;;4967897;28;20466;-80
2023/07/10 09:34:22;;;;;;;7.90;7.20;;;29.40;76.20;;;;;;4977075;28;20803;-76
2023/07/10 09:36:54;;;;;;;8.07;7.47;;;29.40;75.50;;;;;;4976242;28;20481;-77
2023/07/10 09:39:21;;;;;;;8.10;6.90;;;29.50;75.60;;;;;;4977212;28;20462;-77
2023/07/10 09:41:48;;;;;;;8.50;7.80;;;29.40;76.40;;;;;;4977159;28;20470;-80
2023/07/10 09:44:17;;;;;;;8.03;7.23;;;29.50;79.10;;;;;;4977329;28;20479;-81
2023/07/10 09:46:45;;;;;;;8.30;7.60;;;29.60;78.00;;;;;;4977317;28;20525;-80
2023/07/10 09:49:19;;;;;;;8.03;7.43;;;29.60;79.30;;;;;;4976217;28;20466;-77
2023/07/10 09:51:56;;;;;;;8.00;7.40;;;29.60;77.80;;;;;;4977207;28;20549;-77
2023/07/10 09:54:23;;;;;;;8.37;7.67;;;29.60;77.20;;;;;;4976287;28;20463;-77
2023/07/10 09:56:52;;;;;;;8.80;7.90;;;29.70;78.30;;;;;;4977273;28;20537;-80
2023/07/10 09:59:22;;;;;;;8.73;8.00;;;29.70;80.60;;;;;;4976161;28;20471;-78
2023/07/10 10:01:51;;;;;;;8.40;7.70;;;29.80;80.10;;;;;;4976323;28;20817;-77
2023/07/10 10:04:23;;;;;;;7.40;6.90;;;29.80;77.60;;;;;;4975758;28;20510;-77
2023/07/10 10:06:56;;;;;;;8.00;7.40;;;29.80;78.10;;;;;;4977012;28;20471;-77
2023/07/10 10:09:27;;;;;;;7.63;7.00;;;29.90;77.60;;;;;;4975985;28;20967;-77
2023/07/10 10:12:01;;;;;;;7.97;7.23;;;29.90;78.20;;;;;;4976646;28;20470;-80
2023/07/10 10:14:39;;;;;;;7.60;7.10;;;30.00;78.40;;;;;;4976489;28;20471;-80
2023/07/10 10:17:10;;;;;;;8.37;7.77;;;30.00;78.80;;;;;;4976344;28;20498;-80
2023/07/10 10:19:43;;;;;;;8.47;7.87;;;30.00;78.60;;;;;;4976476;28;20475;-81
2023/07/10 10:22:11;;;;;;;8.50;7.70;;;30.10;78.60;;;;;;4975930;28;20955;-81
2023/07/10 10:24:38;;;;;;;7.63;7.13;;;30.10;77.90;;;;;;4975292;28;20471;-80
2023/07/10 10:27:14;;;;;;;8.67;7.60;;;30.10;77.70;;;;;;4976156;28;20470;-80
2023/07/10 10:30:03;;;;;;;8.37;7.60;;;30.10;78.70;;;;;;4976293;28;20960;-80
2023/07/10 10:32:37;;;;;;;7.30;6.70;;;30.10;78.00;;;;;;4975647;28;20799;-81
2023/07/10 10:35:18;;;;;;;7.60;7.00;;;30.00;75.90;;;;;;4976058;28;20514;-80
2023/07/10 10:37:58;;;;;;;8.87;8.07;;;30.10;75.20;;;;;;4976473;28;20474;-80
2023/07/10 10:40:34;;;;;;;7.80;7.30;;;30.10;77.60;;;;;;4976740;28;20578;-80
2023/07/10 10:43:43;;;;;;;9.23;8.43;;;30.20;77.70;;;;;;4975638;28;20478;-77
2023/07/10 10:46:19;;;;;;;7.80;6.90;;;30.20;78.00;;;;;;4975996;28;20475;-81
2023/07/10 10:48:56;;;;;;;7.20;6.47;;;30.30;77.30;;;;;;4975394;28;20542;-77
2023/07/10 10:51:30;;;;;;;8.63;7.97;;;30.30;77.70;;;;;;4976099;28;20490;-77
2023/07/10 10:54:10;;;;;;;7.93;7.23;;;30.30;77.80;;;;;;4975278;28;20475;-80
2023/07/10 10:56:46;;;;;;;7.07;6.37;;;30.30;77.10;;;;;;4975950;28;20469;-81
2023/07/10 10:59:30;;;;;;;7.43;6.70;;;30.30;77.40;;;;;;4975511;28;20473;-80
2023/07/10 11:02:05;;;;;;;7.03;6.43;;;30.40;76.90;;;;;;4974427;28;20972;-77
2023/07/10 11:04:37;;;;;;;6.60;6.10;;;30.40;77.60;;;;;;4975731;28;20532;-81
2023/07/10 11:07:09;;;;;;;8.03;5.97;;;30.40;77.40;;;;;;4974982;28;20497;-80
2023/07/10 11:09:42;;;;;;;6.00;5.50;;;30.50;76.80;;;;;;4975649;28;20491;-78
2023/07/10 11:12:16;;;;;;;6.37;5.87;;;30.50;76.20;;;;;;4975222;28;20480;-80
2023/07/10 11:14:43;;;;;;;6.80;6.30;;;30.50;75.80;;;;;;4975017;28;20510;-80
2023/07/10 11:17:12;;;;;;;6.53;5.93;;;30.50;75.40;;;;;;4975091;28;20465;-80
2023/07/10 11:19:39;;;;;;;7.87;7.13;;;30.50;75.80;;;;;;4975298;28;20482;-80
2023/07/10 11:22:26;;;;;;;7.80;7.00;;;30.60;75.80;;;;;;4974399;28;20622;-79
2023/07/10 11:24:53;;;;;;;7.30;6.60;;;30.60;75.80;;;;;;4965046;28;20506;-78
2023/07/10 11:27:23;;;;;;;8.60;7.80;;;30.60;76.00;;;;;;4974771;28;20541;-77
2023/07/10 11:29:56;;;;;;;8.70;8.00;;;30.60;75.90;;;;;;4975112;28;20467;-80
2023/07/10 11:32:26;;;;;;;8.30;6.67;;;30.60;75.50;;;;;;4974979;28;21223;-78
2023/07/10 11:34:58;;;;;;;8.37;7.63;;;30.60;75.00;;;;;;4975035;28;20861;-77
2023/07/10 11:37:54;;;;;;;9.47;8.60;;;30.60;75.80;;;;;;4951168;28;20472;-78
2023/07/10 11:40:42;;;;;;;8.60;7.90;;;30.60;76.90;;;;;;4940610;29;20467;-78
2023/07/10 11:43:54;;;;;;;10.43;9.63;;;30.60;78.00;;;;;;4953549;29;20512;-78
2023/07/10 11:46:27;;;;;;;9.90;9.00;;;30.60;78.70;;;;;;4955309;29;20519;-77
2023/07/10 11:49:10;;;;;;;9.83;9.03;;;30.50;79.60;;;;;;4955960;29;20491;-81
2023/07/10 11:51:41;;;;;;;12.00;10.70;;;30.50;80.70;;;;;;4952546;28;20498;-81
2023/07/10 11:54:45;;;;;;;10.73;9.83;;;30.50;81.40;;;;;;4955312;28;20922;-81
2023/07/10 11:57:18;;;;;;;11.33;10.43;;;30.50;81.80;;;;;;4955574;29;20463;-77
2023/07/10 11:59:54;;;;;;;11.63;10.73;;;30.40;81.80;;;;;;4955806;29;20472;-77
2023/07/10 12:02:43;;;;;;;9.53;8.70;;;30.40;80.90;;;;;;4947807;29;20479;-77
2023/07/10 12:05:19;;;;;;;11.40;10.50;;;30.40;80.20;;;;;;4949919;28;20898;-77
2023/07/10 12:08:00;;;;;;;11.83;10.80;;;30.40;79.10;;;;;;4943220;28;20546;-77
2023/07/10 12:10:30;;;;;;;10.23;9.23;;;30.40;78.40;;;;;;4952731;29;20468;-78
2023/07/10 12:13:00;;;;;;;9.77;8.87;;;30.30;78.30;;;;;;4953113;29;20582;-77
2023/07/10 12:15:28;;;;;;;9.43;8.67;;;30.30;78.80;;;;;;4954100;28;20490;-77
2023/07/10 12:17:56;;;;;;;10.50;8.50;;;30.30;79.10;;;;;;4954706;29;20562;-82
2023/07/10 12:20:27;;;;;;;8.20;7.60;;;30.30;78.40;;;;;;4950371;28;20523;-76
2023/07/10 12:23:05;;;;;;;10.60;9.63;;;30.30;77.80;;;;;;4935346;29;20552;-77
2023/07/10 12:25:33;;;;;;;9.03;8.10;;;30.30;77.30;;;;;;4946830;28;20850;-81
2023/07/10 12:28:04;;;;;;;9.27;8.40;;;30.30;78.70;;;;;;4957660;29;20475;-82
2023/07/10 12:30:32;;;;;;;9.27;8.57;;;30.20;78.30;;;;;;4956083;28;20770;-80
2023/07/10 12:32:59;;;;;;;9.10;8.40;;;30.20;79.20;;;;;;4958571;29;20504;-81
2023/07/10 12:35:32;;;;;;;10.27;9.47;;;30.20;80.10;;;;;;4957927;28;20554;-80
2023/07/10 12:38:01;;;;;;;11.23;10.33;;;30.10;81.40;;;;;;4958494;29;20464;-81
2023/07/10 12:40:29;;;;;;;10.37;9.47;;;30.10;81.60;;;;;;4956151;29;20474;-77
2023/07/10 12:42:57;;;;;;;11.27;10.47;;;30.10;82.80;;;;;;4958386;29;20467;-77
2023/07/10 12:45:34;;;;;;;10.57;9.57;;;30.00;83.00;;;;;;4958429;28;20479;-81
2023/07/10 12:48:12;;;;;;;11.50;10.70;;;30.00;83.20;;;;;;4948500;28;20487;-81
2023/07/10 12:50:45;;;;;;;10.13;9.13;;;29.90;83.40;;;;;;4957539;29;20794;-78
2023/07/10 12:53:20;;;;;;;9.67;8.87;;;29.80;84.00;;;;;;4958607;29;20961;-81
2023/07/10 12:55:48;;;;;;;11.60;10.50;;;29.70;87.30;;;;;;4957889;28;20467;-82
2023/07/10 12:58:16;;;;;;;11.70;10.80;;;29.60;88.60;;;;;;4958553;29;20838;-76
2023/07/10 13:00:49;;;;;;;11.10;9.53;;;29.50;89.90;;;;;;4957659;29;20953;-81